sensor_id;sensor_type;location;lat;lon;timestamp;temperature;humidity
17425;DHT22;8830;50.978;5.058;2022-09-17T00:11:20;11.00;99.90
17425;DHT22;8830;50.978;5.058;2022-09-17T00:13:49;11.00;99.90
17425;DHT22;8830;50.978;5.058;2022-09-17T00:16:24;10.80;99.90
17425;DHT22;8830;50.978;5.058;2022-09-17T00:18:51;10.90;99.90
17425;DHT22;8830;50.978;5.058;2022-09-17T00:21:19;10.90;99.90
17425;DHT22;8830;50.978;5.058;2022-09-17T00:23:47;13.70;99.90
17425;DHT22;8830;50.978;5.058;2022-09-17T00:26:14;10.90;99.90
17425;DHT22;8830;50.978;5.058;2022-09-17T00:28:41;11.00;99.90
17425;DHT22;8830;50.978;5.058;2022-09-17T00:31:14;11.00;99.90
17425;DHT22;8830;50.978;5.058;2022-09-17T00:33:42;10.90;99.90
17425;DHT22;8830;50.978;5.058;2022-09-17T00:36:09;10.90;99.90
17425;DHT22;8830;50.978;5.058;2022-09-17T00:38:36;10.90;99.90
17425;DHT22;8830;50.978;5.058;2022-09-17T00:41:04;10.80;99.90
17425;DHT22;8830;50.978;5.058;2022-09-17T00:43:37;10.80;99.90
17425;DHT22;8830;50.978;5.058;2022-09-17T00:46:13;10.70;99.90
17425;DHT22;8830;50.978;5.058;2022-09-17T00:48:45;11.10;99.90
17425;DHT22;8830;50.978;5.058;2022-09-17T00:51:16;10.70;99.90
17425;DHT22;8830;50.978;5.058;2022-09-17T00:56:18;10.80;99.90
17425;DHT22;8830;50.978;5.058;2022-09-17T00:58:48;10.80;99.90
17425;DHT22;8830;50.978;5.058;2022-09-17T01:01:16;10.90;99.90
17425;DHT22;8830;50.978;5.058;2022-09-17T01:03:46;10.90;99.90
17425;DHT22;8830;50.978;5.058;2022-09-17T01:06:20;10.90;99.90
17425;DHT22;8830;50.978;5.058;2022-09-17T01:09:03;11.00;99.90
17425;DHT22;8830;50.978;5.058;2022-09-17T01:11:50;11.70;99.90
17425;DHT22;8830;50.978;5.058;2022-09-17T01:14:30;11.20;99.90
17425;DHT22;8830;50.978;5.058;2022-09-17T01:17:04;11.10;99.90
17425;DHT22;8830;50.978;5.058;2022-09-17T01:22:34;11.30;99.90
17425;DHT22;8830;50.978;5.058;2022-09-17T01:25:20;11.20;99.90
17425;DHT22;8830;50.978;5.058;2022-09-17T01:28:21;11.30;99.90
17425;DHT22;8830;50.978;5.058;2022-09-17T01:31:02;11.30;99.90
17425;DHT22;8830;50.978;5.058;2022-09-17T01:33:38;11.30;99.90
17425;DHT22;8830;50.978;5.058;2022-09-17T01:36:19;11.30;99.90
17425;DHT22;8830;50.978;5.058;2022-09-17T01:38:53;11.40;99.90
17425;DHT22;8830;50.978;5.058;2022-09-17T01:41:30;11.50;99.90
17425;DHT22;8830;50.978;5.058;2022-09-17T01:44:03;11.40;99.90
17425;DHT22;8830;50.978;5.058;2022-09-17T01:46:39;11.40;99.90
17425;DHT22;8830;50.978;5.058;2022-09-17T01:49:09;11.50;99.90
17425;DHT22;8830;50.978;5.058;2022-09-17T01:51:39;11.50;99.90
17425;DHT22;8830;50.978;5.058;2022-09-17T01:54:15;11.50;99.90
17425;DHT22;8830;50.978;5.058;2022-09-17T01:56:46;11.40;99.90
17425;DHT22;8830;50.978;5.058;2022-09-17T01:59:17;11.40;99.90
17425;DHT22;8830;50.978;5.058;2022-09-17T02:01:50;11.40;99.90
17425;DHT22;8830;50.978;5.058;2022-09-17T02:04:22;11.30;99.90
17425;DHT22;8830;50.978;5.058;2022-09-17T02:06:56;11.30;99.90
17425;DHT22;8830;50.978;5.058;2022-09-17T02:09:28;11.20;99.90
17425;DHT22;8830;50.978;5.058;2022-09-17T02:12:01;11.20;99.90
17425;DHT22;8830;50.978;5.058;2022-09-17T02:14:34;11.20;99.90
17425;DHT22;8830;50.978;5.058;2022-09-17T02:17:07;11.20;99.90
17425;DHT22;8830;50.978;5.058;2022-09-17T02:19:37;11.20;99.90
17425;DHT22;8830;50.978;5.058;2022-09-17T02:22:13;11.30;99.90
17425;DHT22;8830;50.978;5.058;2022-09-17T02:24:45;11.30;99.90
17425;DHT22;8830;50.978;5.058;2022-09-17T02:27:25;11.70;99.90
17425;DHT22;8830;50.978;5.058;2022-09-17T02:29:56;11.30;99.90
17425;DHT22;8830;50.978;5.058;2022-09-17T02:32:24;11.30;99.90
17425;DHT22;8830;50.978;5.058;2022-09-17T02:34:51;11.30;99.90
17425;DHT22;8830;50.978;5.058;2022-09-17T02:37:18;11.30;99.90
17425;DHT22;8830;50.978;5.058;2022-09-17T02:39:46;11.30;99.90
17425;DHT22;8830;50.978;5.058;2022-09-17T02:42:19;11.20;99.90
17425;DHT22;8830;50.978;5.058;2022-09-17T02:44:56;11.30;99.90
17425;DHT22;8830;50.978;5.058;2022-09-17T02:48:04;11.30;99.90
17425;DHT22;8830;50.978;5.058;2022-09-17T02:50:51;11.40;99.90
17425;DHT22;8830;50.978;5.058;2022-09-17T02:53:30;11.40;99.90
17425;DHT22;8830;50.978;5.058;2022-09-17T02:56:09;11.50;99.90
17425;DHT22;8830;50.978;5.058;2022-09-17T02:58:45;11.40;99.90
17425;DHT22;8830;50.978;5.058;2022-09-17T03:01:17;11.50;99.90
17425;DHT22;8830;50.978;5.058;2022-09-17T03:03:48;11.50;99.90
17425;DHT22;8830;50.978;5.058;2022-09-17T03:06:17;11.50;99.90
17425;DHT22;8830;50.978;5.058;2022-09-17T03:08:45;11.40;99.90
17425;DHT22;8830;50.978;5.058;2022-09-17T03:11:13;11.50;99.90
17425;DHT22;8830;50.978;5.058;2022-09-17T03:13:40;11.50;99.90
17425;DHT22;8830;50.978;5.058;2022-09-17T03:16:07;11.60;99.90
17425;DHT22;8830;50.978;5.058;2022-09-17T03:18:35;11.60;99.90
17425;DHT22;8830;50.978;5.058;2022-09-17T03:21:03;11.60;99.90
17425;DHT22;8830;50.978;5.058;2022-09-17T03:23:30;11.50;99.90
17425;DHT22;8830;50.978;5.058;2022-09-17T03:25:58;11.50;99.90
17425;DHT22;8830;50.978;5.058;2022-09-17T03:28:25;11.50;99.90
17425;DHT22;8830;50.978;5.058;2022-09-17T03:30:52;11.50;99.90
17425;DHT22;8830;50.978;5.058;2022-09-17T03:33:19;11.30;99.90
17425;DHT22;8830;50.978;5.058;2022-09-17T03:35:47;11.30;99.90
17425;DHT22;8830;50.978;5.058;2022-09-17T03:38:15;11.20;99.90
17425;DHT22;8830;50.978;5.058;2022-09-17T03:40:42;11.10;99.90
17425;DHT22;8830;50.978;5.058;2022-09-17T03:43:10;11.00;99.90
17425;DHT22;8830;50.978;5.058;2022-09-17T03:45:37;11.00;99.90
17425;DHT22;8830;50.978;5.058;2022-09-17T03:48:03;10.80;99.90
17425;DHT22;8830;50.978;5.058;2022-09-17T03:50:30;10.80;99.90
17425;DHT22;8830;50.978;5.058;2022-09-17T03:52:57;10.80;99.90
17425;DHT22;8830;50.978;5.058;2022-09-17T03:55:26;10.70;99.90
17425;DHT22;8830;50.978;5.058;2022-09-17T03:57:53;10.60;99.90
17425;DHT22;8830;50.978;5.058;2022-09-17T04:00:21;10.70;99.90
17425;DHT22;8830;50.978;5.058;2022-09-17T04:02:48;10.60;99.90
17425;DHT22;8830;50.978;5.058;2022-09-17T04:05:15;10.60;99.90
17425;DHT22;8830;50.978;5.058;2022-09-17T04:07:42;10.50;99.90
17425;DHT22;8830;50.978;5.058;2022-09-17T04:10:09;10.50;99.90
17425;DHT22;8830;50.978;5.058;2022-09-17T04:12:38;10.40;99.90
17425;DHT22;8830;50.978;5.058;2022-09-17T04:15:06;10.40;99.90
17425;DHT22;8830;50.978;5.058;2022-09-17T04:17:33;10.40;99.90
17425;DHT22;8830;50.978;5.058;2022-09-17T04:20:01;10.40;99.90
17425;DHT22;8830;50.978;5.058;2022-09-17T04:22:28;10.40;99.90
17425;DHT22;8830;50.978;5.058;2022-09-17T04:24:55;10.40;99.90
17425;DHT22;8830;50.978;5.058;2022-09-17T04:27:22;10.60;99.90
17425;DHT22;8830;50.978;5.058;2022-09-17T04:29:51;10.80;99.90
17425;DHT22;8830;50.978;5.058;2022-09-17T04:32:18;10.80;99.90
17425;DHT22;8830;50.978;5.058;2022-09-17T04:34:45;10.80;99.90
17425;DHT22;8830;50.978;5.058;2022-09-17T04:37:12;10.90;99.90
17425;DHT22;8830;50.978;5.058;2022-09-17T04:39:39;10.80;99.90
17425;DHT22;8830;50.978;5.058;2022-09-17T04:42:06;10.80;99.90
17425;DHT22;8830;50.978;5.058;2022-09-17T04:44:34;10.90;99.90
17425;DHT22;8830;50.978;5.058;2022-09-17T04:47:03;10.90;99.90
17425;DHT22;8830;50.978;5.058;2022-09-17T04:49:31;11.00;99.90
17425;DHT22;8830;50.978;5.058;2022-09-17T04:51:58;11.00;99.90
17425;DHT22;8830;50.978;5.058;2022-09-17T04:54:25;11.00;99.90
17425;DHT22;8830;50.978;5.058;2022-09-17T04:56:52;11.00;99.90
17425;DHT22;8830;50.978;5.058;2022-09-17T04:59:19;11.00;99.90
17425;DHT22;8830;50.978;5.058;2022-09-17T05:01:46;10.90;99.90
17425;DHT22;8830;50.978;5.058;2022-09-17T05:04:15;10.90;99.90
17425;DHT22;8830;50.978;5.058;2022-09-17T05:06:42;10.90;99.90
17425;DHT22;8830;50.978;5.058;2022-09-17T05:09:09;10.80;99.90
17425;DHT22;8830;50.978;5.058;2022-09-17T05:11:37;10.80;99.90
17425;DHT22;8830;50.978;5.058;2022-09-17T05:14:07;10.90;99.90
17425;DHT22;8830;50.978;5.058;2022-09-17T05:16:33;10.80;99.90
17425;DHT22;8830;50.978;5.058;2022-09-17T05:19:02;10.80;99.90
17425;DHT22;8830;50.978;5.058;2022-09-17T05:21:30;10.80;99.90
17425;DHT22;8830;50.978;5.058;2022-09-17T05:23:57;10.80;99.90
17425;DHT22;8830;50.978;5.058;2022-09-17T05:26:25;10.90;99.90
17425;DHT22;8830;50.978;5.058;2022-09-17T05:28:54;10.90;99.90
17425;DHT22;8830;50.978;5.058;2022-09-17T05:31:22;11.00;99.90
17425;DHT22;8830;50.978;5.058;2022-09-17T05:38:45;11.10;99.90
17425;DHT22;8830;50.978;5.058;2022-09-17T05:43:42;11.20;99.90
17425;DHT22;8830;50.978;5.058;2022-09-17T05:46:09;11.20;99.90
17425;DHT22;8830;50.978;5.058;2022-09-17T05:48:37;11.20;99.90
17425;DHT22;8830;50.978;5.058;2022-09-17T05:51:04;11.20;99.90
17425;DHT22;8830;50.978;5.058;2022-09-17T05:53:31;11.20;99.90
17425;DHT22;8830;50.978;5.058;2022-09-17T05:55:59;11.20;99.90
17425;DHT22;8830;50.978;5.058;2022-09-17T05:58:26;11.20;99.90
17425;DHT22;8830;50.978;5.058;2022-09-17T06:00:55;11.30;99.90
17425;DHT22;8830;50.978;5.058;2022-09-17T06:03:26;11.40;99.90
17425;DHT22;8830;50.978;5.058;2022-09-17T06:05:55;11.40;99.90
17425;DHT22;8830;50.978;5.058;2022-09-17T06:08:23;11.30;99.90
17425;DHT22;8830;50.978;5.058;2022-09-17T06:10:51;11.30;99.90
17425;DHT22;8830;50.978;5.058;2022-09-17T06:13:20;11.30;99.90
17425;DHT22;8830;50.978;5.058;2022-09-17T06:15:51;11.30;99.90
17425;DHT22;8830;50.978;5.058;2022-09-17T06:18:19;11.30;99.90
17425;DHT22;8830;50.978;5.058;2022-09-17T06:20:56;11.30;99.90
17425;DHT22;8830;50.978;5.058;2022-09-17T06:25:53;11.40;99.90
17425;DHT22;8830;50.978;5.058;2022-09-17T06:28:22;11.50;99.90
17425;DHT22;8830;50.978;5.058;2022-09-17T06:30:49;11.50;99.90
17425;DHT22;8830;50.978;5.058;2022-09-17T06:33:19;11.70;99.90
17425;DHT22;8830;50.978;5.058;2022-09-17T06:35:46;12.00;99.90
17425;DHT22;8830;50.978;5.058;2022-09-17T06:38:13;12.00;99.90
17425;DHT22;8830;50.978;5.058;2022-09-17T06:40:40;12.50;99.90
17425;DHT22;8830;50.978;5.058;2022-09-17T06:43:09;12.40;99.90
17425;DHT22;8830;50.978;5.058;2022-09-17T06:45:38;12.40;99.90
17425;DHT22;8830;50.978;5.058;2022-09-17T06:48:05;12.60;99.90
17425;DHT22;8830;50.978;5.058;2022-09-17T06:50:33;13.60;99.90
17425;DHT22;8830;50.978;5.058;2022-09-17T06:53:00;14.50;99.90
17425;DHT22;8830;50.978;5.058;2022-09-17T06:55:28;15.20;99.90
17425;DHT22;8830;50.978;5.058;2022-09-17T06:57:58;15.40;99.90
17425;DHT22;8830;50.978;5.058;2022-09-17T07:00:25;15.20;99.90
17425;DHT22;8830;50.978;5.058;2022-09-17T07:02:58;14.70;99.90
17425;DHT22;8830;50.978;5.058;2022-09-17T07:05:26;14.70;99.90
17425;DHT22;8830;50.978;5.058;2022-09-17T07:07:54;14.40;99.90
17425;DHT22;8830;50.978;5.058;2022-09-17T07:10:22;14.40;99.90
17425;DHT22;8830;50.978;5.058;2022-09-17T07:12:49;14.60;99.90
17425;DHT22;8830;50.978;5.058;2022-09-17T07:15:16;15.30;99.90
17425;DHT22;8830;50.978;5.058;2022-09-17T07:17:46;15.90;99.90
17425;DHT22;8830;50.978;5.058;2022-09-17T07:20:15;16.20;99.90
17425;DHT22;8830;50.978;5.058;2022-09-17T07:22:43;16.30;99.90
17425;DHT22;8830;50.978;5.058;2022-09-17T07:25:10;16.30;99.90
17425;DHT22;8830;50.978;5.058;2022-09-17T07:27:38;16.10;99.90
17425;DHT22;8830;50.978;5.058;2022-09-17T07:30:06;15.50;99.90
17425;DHT22;8830;50.978;5.058;2022-09-17T07:32:33;15.40;99.90
17425;DHT22;8830;50.978;5.058;2022-09-17T07:35:01;15.10;99.90
17425;DHT22;8830;50.978;5.058;2022-09-17T07:37:30;14.70;99.90
17425;DHT22;8830;50.978;5.058;2022-09-17T07:39:58;14.30;99.90
17425;DHT22;8830;50.978;5.058;2022-09-17T07:42:25;14.00;99.90
17425;DHT22;8830;50.978;5.058;2022-09-17T07:44:53;13.70;99.90
17425;DHT22;8830;50.978;5.058;2022-09-17T07:47:21;13.50;99.90
17425;DHT22;8830;50.978;5.058;2022-09-17T07:49:48;13.50;99.90
17425;DHT22;8830;50.978;5.058;2022-09-17T07:52:16;13.50;99.90
17425;DHT22;8830;50.978;5.058;2022-09-17T07:57:20;15.70;99.90
17425;DHT22;8830;50.978;5.058;2022-09-17T07:59:47;17.20;99.90
17425;DHT22;8830;50.978;5.058;2022-09-17T08:02:14;19.40;99.90
17425;DHT22;8830;50.978;5.058;2022-09-17T08:04:42;20.50;99.90
17425;DHT22;8830;50.978;5.058;2022-09-17T08:07:10;20.60;99.90
17425;DHT22;8830;50.978;5.058;2022-09-17T08:09:38;20.50;99.90
17425;DHT22;8830;50.978;5.058;2022-09-17T08:12:07;19.20;99.90
17425;DHT22;8830;50.978;5.058;2022-09-17T08:14:36;19.10;99.90
17425;DHT22;8830;50.978;5.058;2022-09-17T08:17:05;17.90;99.90
17425;DHT22;8830;50.978;5.058;2022-09-17T08:19:33;17.00;99.90
17425;DHT22;8830;50.978;5.058;2022-09-17T08:22:01;17.60;99.90
17425;DHT22;8830;50.978;5.058;2022-09-17T08:24:28;17.90;99.90
17425;DHT22;8830;50.978;5.058;2022-09-17T08:26:55;18.70;99.90
17425;DHT22;8830;50.978;5.058;2022-09-17T08:29:24;19.30;99.90
17425;DHT22;8830;50.978;5.058;2022-09-17T08:31:53;19.90;99.90
17425;DHT22;8830;50.978;5.058;2022-09-17T08:34:20;20.00;99.90
17425;DHT22;8830;50.978;5.058;2022-09-17T08:36:47;20.00;99.90
17425;DHT22;8830;50.978;5.058;2022-09-17T08:39:15;20.40;99.90
17425;DHT22;8830;50.978;5.058;2022-09-17T08:41:50;21.00;99.90
17425;DHT22;8830;50.978;5.058;2022-09-17T08:44:33;21.50;99.90
17425;DHT22;8830;50.978;5.058;2022-09-17T08:47:12;20.50;99.90
17425;DHT22;8830;50.978;5.058;2022-09-17T08:49:47;19.90;99.90
17425;DHT22;8830;50.978;5.058;2022-09-17T08:55:27;19.00;99.90
17425;DHT22;8830;50.978;5.058;2022-09-17T08:58:06;18.50;99.90
17425;DHT22;8830;50.978;5.058;2022-09-17T09:00:43;18.50;99.90
17425;DHT22;8830;50.978;5.058;2022-09-17T09:03:24;18.40;99.90
17425;DHT22;8830;50.978;5.058;2022-09-17T09:05:55;18.30;99.90
17425;DHT22;8830;50.978;5.058;2022-09-17T09:08:29;17.90;99.90
17425;DHT22;8830;50.978;5.058;2022-09-17T09:11:00;17.90;99.90
17425;DHT22;8830;50.978;5.058;2022-09-17T09:13:30;17.90;99.90
17425;DHT22;8830;50.978;5.058;2022-09-17T09:16:12;18.10;99.90
17425;DHT22;8830;50.978;5.058;2022-09-17T09:18:41;18.10;99.90
17425;DHT22;8830;50.978;5.058;2022-09-17T09:21:18;17.80;99.90
17425;DHT22;8830;50.978;5.058;2022-09-17T09:23:52;17.60;99.90
17425;DHT22;8830;50.978;5.058;2022-09-17T09:26:23;17.40;99.90
17425;DHT22;8830;50.978;5.058;2022-09-17T09:29:04;17.30;99.90
17425;DHT22;8830;50.978;5.058;2022-09-17T09:31:54;17.20;99.90
17425;DHT22;8830;50.978;5.058;2022-09-17T09:34:25;17.10;99.90
17425;DHT22;8830;50.978;5.058;2022-09-17T09:37:01;16.80;99.90
17425;DHT22;8830;50.978;5.058;2022-09-17T09:39:32;16.80;99.90
17425;DHT22;8830;50.978;5.058;2022-09-17T09:42:05;16.80;99.90
17425;DHT22;8830;50.978;5.058;2022-09-17T09:44:36;16.80;99.90
17425;DHT22;8830;50.978;5.058;2022-09-17T09:50:38;17.60;99.90
17425;DHT22;8830;50.978;5.058;2022-09-17T09:53:11;17.70;99.90
17425;DHT22;8830;50.978;5.058;2022-09-17T09:55:58;17.70;99.90
17425;DHT22;8830;50.978;5.058;2022-09-17T09:58:33;17.60;99.90
17425;DHT22;8830;50.978;5.058;2022-09-17T10:01:01;17.60;99.90
17425;DHT22;8830;50.978;5.058;2022-09-17T10:03:30;17.60;99.90
17425;DHT22;8830;50.978;5.058;2022-09-17T10:06:06;17.60;99.90
17425;DHT22;8830;50.978;5.058;2022-09-17T10:08:36;17.60;99.90
17425;DHT22;8830;50.978;5.058;2022-09-17T10:11:05;17.60;99.90
17425;DHT22;8830;50.978;5.058;2022-09-17T10:13:41;18.10;99.90
17425;DHT22;8830;50.978;5.058;2022-09-17T10:16:18;18.30;99.90
17425;DHT22;8830;50.978;5.058;2022-09-17T10:18:46;18.40;99.90
17425;DHT22;8830;50.978;5.058;2022-09-17T10:21:30;18.30;99.90
17425;DHT22;8830;50.978;5.058;2022-09-17T10:23:58;18.10;99.90
17425;DHT22;8830;50.978;5.058;2022-09-17T10:26:27;18.00;99.90
17425;DHT22;8830;50.978;5.058;2022-09-17T10:28:58;17.30;99.90
17425;DHT22;8830;50.978;5.058;2022-09-17T10:31:25;17.20;99.90
17425;DHT22;8830;50.978;5.058;2022-09-17T10:33:56;17.00;99.90
17425;DHT22;8830;50.978;5.058;2022-09-17T10:36:41;16.90;99.90
17425;DHT22;8830;50.978;5.058;2022-09-17T10:39:32;16.90;99.90
17425;DHT22;8830;50.978;5.058;2022-09-17T10:42:02;16.90;99.90
17425;DHT22;8830;50.978;5.058;2022-09-17T10:44:31;17.20;99.90
17425;DHT22;8830;50.978;5.058;2022-09-17T10:47:10;17.50;99.90
17425;DHT22;8830;50.978;5.058;2022-09-17T10:49:40;17.50;99.90
17425;DHT22;8830;50.978;5.058;2022-09-17T10:52:13;17.80;99.90
17425;DHT22;8830;50.978;5.058;2022-09-17T10:54:55;18.20;99.90
17425;DHT22;8830;50.978;5.058;2022-09-17T10:57:34;18.50;99.90
17425;DHT22;8830;50.978;5.058;2022-09-17T11:00:11;18.50;99.90
17425;DHT22;8830;50.978;5.058;2022-09-17T11:03:15;18.50;99.90
17425;DHT22;8830;50.978;5.058;2022-09-17T11:08:57;18.10;99.90
17425;DHT22;8830;50.978;5.058;2022-09-17T11:11:37;18.10;99.90
17425;DHT22;8830;50.978;5.058;2022-09-17T11:14:13;17.70;99.90
17425;DHT22;8830;50.978;5.058;2022-09-17T11:16:49;17.40;99.90
17425;DHT22;8830;50.978;5.058;2022-09-17T11:19:26;17.80;99.90
17425;DHT22;8830;50.978;5.058;2022-09-17T11:22:02;17.80;99.90
17425;DHT22;8830;50.978;5.058;2022-09-17T11:25:20;17.80;99.90
17425;DHT22;8830;50.978;5.058;2022-09-17T11:28:05;18.20;99.90
17425;DHT22;8830;50.978;5.058;2022-09-17T11:30:42;18.20;99.90
17425;DHT22;8830;50.978;5.058;2022-09-17T11:33:22;18.20;99.90
17425;DHT22;8830;50.978;5.058;2022-09-17T11:35:52;18.10;99.90
17425;DHT22;8830;50.978;5.058;2022-09-17T11:38:28;17.80;99.90
17425;DHT22;8830;50.978;5.058;2022-09-17T11:41:01;18.00;99.90
17425;DHT22;8830;50.978;5.058;2022-09-17T11:43:30;18.10;99.90
17425;DHT22;8830;50.978;5.058;2022-09-17T11:46:01;18.10;99.90
17425;DHT22;8830;50.978;5.058;2022-09-17T11:48:36;18.10;99.90
17425;DHT22;8830;50.978;5.058;2022-09-17T11:51:18;17.70;99.90
17425;DHT22;8830;50.978;5.058;2022-09-17T11:53:50;17.70;99.90
17425;DHT22;8830;50.978;5.058;2022-09-17T11:56:25;17.40;99.90
17425;DHT22;8830;50.978;5.058;2022-09-17T11:58:57;17.20;99.90
17425;DHT22;8830;50.978;5.058;2022-09-17T12:01:29;16.80;99.90
17425;DHT22;8830;50.978;5.058;2022-09-17T12:04:00;16.80;99.90
17425;DHT22;8830;50.978;5.058;2022-09-17T12:06:35;16.60;99.90
17425;DHT22;8830;50.978;5.058;2022-09-17T12:09:09;16.30;99.90
17425;DHT22;8830;50.978;5.058;2022-09-17T12:11:45;15.90;99.90
17425;DHT22;8830;50.978;5.058;2022-09-17T12:14:21;15.50;99.90
17425;DHT22;8830;50.978;5.058;2022-09-17T12:16:54;15.50;99.90
17425;DHT22;8830;50.978;5.058;2022-09-17T12:19:28;15.30;99.90
17425;DHT22;8830;50.978;5.058;2022-09-17T12:22:03;15.20;99.90
17425;DHT22;8830;50.978;5.058;2022-09-17T12:24:31;15.20;99.90
17425;DHT22;8830;50.978;5.058;2022-09-17T12:27:24;15.20;99.90
17425;DHT22;8830;50.978;5.058;2022-09-17T12:30:10;15.40;99.90
17425;DHT22;8830;50.978;5.058;2022-09-17T12:35:54;15.20;99.90
17425;DHT22;8830;50.978;5.058;2022-09-17T12:38:43;15.20;99.90
17425;DHT22;8830;50.978;5.058;2022-09-17T12:41:18;15.40;99.90
17425;DHT22;8830;50.978;5.058;2022-09-17T12:43:59;15.40;99.90
17425;DHT22;8830;50.978;5.058;2022-09-17T12:46:45;15.80;99.90
17425;DHT22;8830;50.978;5.058;2022-09-17T12:49:52;15.80;99.90
17425;DHT22;8830;50.978;5.058;2022-09-17T12:52:29;15.80;99.90
17425;DHT22;8830;50.978;5.058;2022-09-17T12:55:29;15.80;99.90
17425;DHT22;8830;50.978;5.058;2022-09-17T12:58:09;15.80;99.90
17425;DHT22;8830;50.978;5.058;2022-09-17T13:00:43;16.00;99.90
17425;DHT22;8830;50.978;5.058;2022-09-17T13:03:18;16.10;99.90
17425;DHT22;8830;50.978;5.058;2022-09-17T13:09:05;16.20;99.90
17425;DHT22;8830;50.978;5.058;2022-09-17T13:11:49;16.30;99.90
17425;DHT22;8830;50.978;5.058;2022-09-17T13:14:21;16.50;99.90
17425;DHT22;8830;50.978;5.058;2022-09-17T13:16:58;16.50;99.90
17425;DHT22;8830;50.978;5.058;2022-09-17T13:19:33;16.40;99.90
17425;DHT22;8830;50.978;5.058;2022-09-17T13:22:04;16.50;99.90
17425;DHT22;8830;50.978;5.058;2022-09-17T13:24:35;16.50;99.90
17425;DHT22;8830;50.978;5.058;2022-09-17T13:27:04;16.80;99.90
17425;DHT22;8830;50.978;5.058;2022-09-17T13:29:59;17.10;99.90
17425;DHT22;8830;50.978;5.058;2022-09-17T13:32:48;17.40;99.90
17425;DHT22;8830;50.978;5.058;2022-09-17T13:35:47;17.40;99.90
17425;DHT22;8830;50.978;5.058;2022-09-17T13:38:16;17.10;99.90
17425;DHT22;8830;50.978;5.058;2022-09-17T13:40:44;16.40;99.90
17425;DHT22;8830;50.978;5.058;2022-09-17T13:43:14;15.90;99.90
17425;DHT22;8830;50.978;5.058;2022-09-17T13:46:10;15.70;99.90
17425;DHT22;8830;50.978;5.058;2022-09-17T13:48:59;15.60;99.90
17425;DHT22;8830;50.978;5.058;2022-09-17T13:51:50;15.70;99.90
17425;DHT22;8830;50.978;5.058;2022-09-17T13:54:21;15.80;99.90
17425;DHT22;8830;50.978;5.058;2022-09-17T13:57:04;15.80;99.90
17425;DHT22;8830;50.978;5.058;2022-09-17T13:59:34;16.00;99.90
17425;DHT22;8830;50.978;5.058;2022-09-17T14:02:28;16.00;99.90
17425;DHT22;8830;50.978;5.058;2022-09-17T14:05:23;16.20;99.90
17425;DHT22;8830;50.978;5.058;2022-09-17T14:08:12;16.20;99.90
17425;DHT22;8830;50.978;5.058;2022-09-17T14:10:42;16.50;99.90
17425;DHT22;8830;50.978;5.058;2022-09-17T14:13:41;16.70;99.90
17425;DHT22;8830;50.978;5.058;2022-09-17T14:16:33;16.60;99.90
17425;DHT22;8830;50.978;5.058;2022-09-17T14:19:23;16.60;99.90
17425;DHT22;8830;50.978;5.058;2022-09-17T14:21:59;16.80;99.90
17425;DHT22;8830;50.978;5.058;2022-09-17T14:24:38;16.80;99.90
17425;DHT22;8830;50.978;5.058;2022-09-17T14:27:17;16.80;99.90
17425;DHT22;8830;50.978;5.058;2022-09-17T14:30:12;16.40;99.90
17425;DHT22;8830;50.978;5.058;2022-09-17T14:32:44;16.40;99.90
17425;DHT22;8830;50.978;5.058;2022-09-17T14:35:19;15.80;99.90
17425;DHT22;8830;50.978;5.058;2022-09-17T14:37:53;15.80;99.90
17425;DHT22;8830;50.978;5.058;2022-09-17T14:40:22;15.50;99.90
17425;DHT22;8830;50.978;5.058;2022-09-17T14:42:59;15.20;99.90
17425;DHT22;8830;50.978;5.058;2022-09-17T14:48:23;14.70;99.90
17425;DHT22;8830;50.978;5.058;2022-09-17T14:51:25;14.50;99.90
17425;DHT22;8830;50.978;5.058;2022-09-17T14:54:23;14.50;99.90
17425;DHT22;8830;50.978;5.058;2022-09-17T14:56:54;14.50;99.90
17425;DHT22;8830;50.978;5.058;2022-09-17T15:02:31;14.80;99.90
17425;DHT22;8830;50.978;5.058;2022-09-17T15:05:01;14.90;99.90
17425;DHT22;8830;50.978;5.058;2022-09-17T15:10:17;15.40;99.90
17425;DHT22;8830;50.978;5.058;2022-09-17T15:12:46;15.70;99.90
17425;DHT22;8830;50.978;5.058;2022-09-17T15:15:18;15.80;99.90
17425;DHT22;8830;50.978;5.058;2022-09-17T15:17:47;15.80;99.90
17425;DHT22;8830;50.978;5.058;2022-09-17T15:20:17;15.70;99.90
17425;DHT22;8830;50.978;5.058;2022-09-17T15:22:50;15.60;99.90
17425;DHT22;8830;50.978;5.058;2022-09-17T15:25:22;15.60;99.90
17425;DHT22;8830;50.978;5.058;2022-09-17T15:27:54;15.70;99.90
17425;DHT22;8830;50.978;5.058;2022-09-17T15:30:24;15.70;99.90
17425;DHT22;8830;50.978;5.058;2022-09-17T15:32:52;15.60;99.90
17425;DHT22;8830;50.978;5.058;2022-09-17T15:35:22;15.60;99.90
17425;DHT22;8830;50.978;5.058;2022-09-17T15:37:54;15.30;99.90
17425;DHT22;8830;50.978;5.058;2022-09-17T15:40:29;15.30;99.90
17425;DHT22;8830;50.978;5.058;2022-09-17T15:43:04;15.20;99.90
17425;DHT22;8830;50.978;5.058;2022-09-17T15:45:35;15.10;99.90
17425;DHT22;8830;50.978;5.058;2022-09-17T15:48:05;15.00;99.90
17425;DHT22;8830;50.978;5.058;2022-09-17T15:50:33;15.00;99.90
17425;DHT22;8830;50.978;5.058;2022-09-17T15:53:20;14.90;99.90
17425;DHT22;8830;50.978;5.058;2022-09-17T15:56:01;15.00;99.90
17425;DHT22;8830;50.978;5.058;2022-09-17T15:58:33;15.00;99.90
17425;DHT22;8830;50.978;5.058;2022-09-17T16:04:20;14.90;99.90
17425;DHT22;8830;50.978;5.058;2022-09-17T16:06:54;15.00;99.90
17425;DHT22;8830;50.978;5.058;2022-09-17T16:09:44;15.00;99.90
17425;DHT22;8830;50.978;5.058;2022-09-17T16:12:17;15.10;99.90
17425;DHT22;8830;50.978;5.058;2022-09-17T16:14:48;15.10;99.90
17425;DHT22;8830;50.978;5.058;2022-09-17T16:17:32;14.80;99.90
17425;DHT22;8830;50.978;5.058;2022-09-17T16:20:06;15.10;99.90
17425;DHT22;8830;50.978;5.058;2022-09-17T16:22:34;15.00;99.90
17425;DHT22;8830;50.978;5.058;2022-09-17T16:25:02;15.10;99.90
17425;DHT22;8830;50.978;5.058;2022-09-17T16:27:41;15.20;99.90
17425;DHT22;8830;50.978;5.058;2022-09-17T16:30:14;15.20;99.90
17425;DHT22;8830;50.978;5.058;2022-09-17T16:32:42;15.00;99.90
17425;DHT22;8830;50.978;5.058;2022-09-17T16:35:11;14.80;99.90
17425;DHT22;8830;50.978;5.058;2022-09-17T16:37:39;14.70;99.90
17425;DHT22;8830;50.978;5.058;2022-09-17T16:40:09;14.60;99.90
17425;DHT22;8830;50.978;5.058;2022-09-17T16:42:38;14.50;99.90
17425;DHT22;8830;50.978;5.058;2022-09-17T16:45:07;14.50;99.90
17425;DHT22;8830;50.978;5.058;2022-09-17T16:47:35;14.50;99.90
17425;DHT22;8830;50.978;5.058;2022-09-17T16:50:11;14.40;99.90
17425;DHT22;8830;50.978;5.058;2022-09-17T16:52:38;14.50;99.90
17425;DHT22;8830;50.978;5.058;2022-09-17T16:55:06;14.50;99.90
17425;DHT22;8830;50.978;5.058;2022-09-17T16:57:34;14.40;99.90
17425;DHT22;8830;50.978;5.058;2022-09-17T17:00:08;14.50;99.90
17425;DHT22;8830;50.978;5.058;2022-09-17T17:02:38;14.40;99.90
17425;DHT22;8830;50.978;5.058;2022-09-17T17:05:06;14.40;99.90
17425;DHT22;8830;50.978;5.058;2022-09-17T17:07:36;14.30;99.90
17425;DHT22;8830;50.978;5.058;2022-09-17T17:10:04;14.30;99.90
17425;DHT22;8830;50.978;5.058;2022-09-17T17:12:33;14.30;99.90
17425;DHT22;8830;50.978;5.058;2022-09-17T17:15:01;14.30;99.90
17425;DHT22;8830;50.978;5.058;2022-09-17T17:17:39;14.30;99.90